Time;durP1;ratioP1;P1;durP2;ratioP2;P2;SDS_P1;SDS_P2;PMS_P1;PMS_P2;Temp;Humidity;BMP_temperature;BMP_pressure;BME280_temperature;BME280_humidity;BME280_pressure;Samples;Min_cycle;Max_cycle;Signal;HPM_P1;HPM_P2
2021/06/01 00:00:35;;;;;;;2.15;1.20;;;;;;;18.05;33.80;100272.66;5000410;28;20058;-84
2021/06/01 00:03:10;;;;;;;2.78;0.95;;;;;;;18.05;33.54;100270.00;4996459;28;20057;-85
2021/06/01 00:05:50;;;;;;;3.13;1.20;;;;;;;17.99;33.72;100267.84;4994750;28;20050;-85
2021/06/01 00:08:20;;;;;;;1.88;1.15;;;;;;;18.00;33.56;100272.19;4994117;28;20054;-84
2021/06/01 00:10:46;;;;;;;2.67;0.98;;;;;;;17.97;33.67;100270.63;4995161;28;20447;-84
2021/06/01 00:13:16;;;;;;;4.90;1.10;;;;;;;17.95;33.52;100269.06;4994917;28;20058;-85
2021/06/01 00:15:43;;;;;;;3.53;1.10;;;;;;;17.96;33.51;100270.72;4995856;28;20410;-85
2021/06/01 00:18:10;;;;;;;1.98;1.00;;;;;;;17.98;33.68;100277.63;4994822;28;20137;-85
2021/06/01 00:20:37;;;;;;;3.92;1.40;;;;;;;18.00;33.83;100274.00;4995074;28;20501;-84
2021/06/01 00:23:03;;;;;;;1.48;1.10;;;;;;;18.00;33.85;100271.31;4994812;28;20065;-84
2021/06/01 00:25:30;;;;;;;2.15;1.15;;;;;;;18.00;33.89;100274.00;4994419;28;20053;-84
2021/06/01 00:28:00;;;;;;;4.15;1.38;;;;;;;17.95;34.10;100269.88;4994737;28;20062;-85
2021/06/01 00:30:26;;;;;;;1.98;1.10;;;;;;;17.94;33.67;100265.53;4995992;28;20053;-85
2021/06/01 00:32:56;;;;;;;1.27;1.10;;;;;;;17.91;33.95;100264.94;4995582;28;20056;-84
2021/06/01 00:35:24;;;;;;;1.98;0.98;;;;;;;17.91;33.63;100270.25;4994366;28;20137;-84
2021/06/01 00:37:53;;;;;;;1.58;0.95;;;;;;;17.89;33.89;100277.50;4994303;28;20056;-85
2021/06/01 00:40:19;;;;;;;1.17;0.85;;;;;;;17.89;33.74;100273.03;4994913;28;20411;-85
2021/06/01 00:42:46;;;;;;;1.60;1.10;;;;;;;17.88;33.55;100274.03;4994613;28;20414;-85
2021/06/01 00:45:20;;;;;;;1.83;0.93;;;;;;;17.88;33.84;100275.81;4994102;28;20042;-84
2021/06/01 00:47:47;;;;;;;;;;;;;;;17.89;32.87;100281.03;4996105;28;20050;-84
2021/06/01 00:50:15;;;;;;;2.55;1.27;;;;;;;17.93;33.20;100278.97;5013435;28;19921;-85
2021/06/01 00:52:41;;;;;;;1.52;1.10;;;;;;;17.91;33.42;100281.75;5013638;28;20060;-85
2021/06/01 00:55:09;;;;;;;1.88;1.05;;;;;;;17.89;33.59;100278.38;5013641;28;20054;-85
2021/06/01 00:57:41;;;;;;;2.88;1.17;;;;;;;17.86;33.78;100283.09;5013656;28;20050;-85
2021/06/01 01:03:02;;;;;;;1.33;1.10;;;;;;;17.89;33.75;100282.84;4987025;28;20386;-84
2021/06/01 01:05:36;;;;;;;3.00;1.40;;;;;;;17.88;33.71;100278.50;4999096;28;20058;-85
2021/06/01 01:11:31;;;;;;;3.33;1.40;;;;;;;17.86;33.72;100277.78;4989842;28;20058;-85
2021/06/01 01:17:41;;;;;;;3.80;1.60;;;;;;;17.81;33.55;100284.31;4943438;28;20054;-84
2021/06/01 01:20:18;;;;;;;4.25;1.42;;;;;;;17.87;33.73;100282.13;4994218;28;20116;-84
2021/06/01 01:22:47;;;;;;;3.53;1.73;;;;;;;17.86;33.99;100285.78;4974311;28;20072;-84
2021/06/01 01:25:38;;;;;;;4.70;1.67;;;;;;;17.84;34.01;100285.88;4973893;28;20139;-85
2021/06/01 01:28:10;;;;;;;2.95;1.60;;;;;;;17.86;33.77;100283.09;4974374;28;20054;-85
2021/06/01 01:30:57;;;;;;;4.32;1.58;;;;;;;17.83;34.25;100285.03;4974381;28;20047;-85
2021/06/01 01:33:41;;;;;;;6.63;1.85;;;;;;;17.81;34.06;100281.66;4974219;28;20439;-85
2021/06/01 01:36:11;;;;;;;3.25;1.52;;;;;;;17.87;34.14;100282.94;4990007;28;20085;-85
2021/06/01 01:38:40;;;;;;;4.75;1.50;;;;;;;17.87;34.39;100284.78;5006664;28;20056;-85
2021/06/01 01:41:19;;;;;;;3.78;1.67;;;;;;;17.81;34.61;100284.31;5012735;28;20120;-85
2021/06/01 01:43:52;;;;;;;1.52;1.42;;;;;;;17.83;34.55;100274.38;5012797;28;20152;-85
2021/06/01 01:46:36;;;;;;;2.92;1.70;;;;;;;17.79;35.03;100278.25;5013111;28;20052;-85
2021/06/01 01:49:05;;;;;;;4.47;1.77;;;;;;;17.77;34.68;100280.19;5011545;28;20058;-85
2021/06/01 01:51:39;;;;;;;4.10;1.48;;;;;;;17.73;34.99;100276.09;5012742;28;20053;-85
2021/06/01 01:54:11;;;;;;;4.20;1.63;;;;;;;17.67;34.92;100271.22;5012883;28;20072;-85
2021/06/01 01:56:42;;;;;;;3.67;1.45;;;;;;;17.66;35.06;100277.53;5011632;28;20405;-85
2021/06/01 01:59:28;;;;;;;1.77;1.50;;;;;;;17.60;35.04;100280.69;4993281;28;20406;-85
2021/06/01 02:01:55;;;;;;;3.72;1.55;;;;;;;17.62;34.98;100268.09;4993403;28;20583;-85
2021/06/01 02:04:25;;;;;;;1.92;1.35;;;;;;;17.58;35.29;100268.31;4992414;28;20054;-85
2021/06/01 02:06:57;;;;;;;3.05;1.30;;;;;;;17.54;35.39;100272.19;4992796;28;20050;-85
2021/06/01 02:09:24;;;;;;;6.63;1.48;;;;;;;17.54;35.15;100263.38;4992961;28;20057;-82
2021/06/01 02:11:52;;;;;;;3.92;1.50;;;;;;;17.51;35.09;100264.47;5023773;22;20038;-84
2021/06/01 02:14:21;;;;;;;3.47;1.25;;;;;;;17.48;35.21;100263.84;5012409;28;20060;-85
2021/06/01 02:16:49;;;;;;;4.40;1.50;;;;;;;17.44;35.29;100264.09;5029330;28;20521;-85
2021/06/01 02:19:26;;;;;;;3.38;1.50;;;;;;;17.40;35.69;100259.13;5012256;28;20049;-85
2021/06/01 02:25:14;;;;;;;1.63;1.30;;;;;;;17.36;35.18;100258.53;5021241;28;20057;-84
2021/06/01 02:27:50;;;;;;;2.40;1.60;;;;;;;17.38;35.35;100259.25;5012459;28;20068;-85
2021/06/01 02:30:39;;;;;;;3.28;1.70;;;;;;;17.38;35.55;100263.72;5013426;28;20052;-85
2021/06/01 02:33:09;;;;;;;1.17;1.08;;;;;;;17.39;35.45;100265.41;5016555;28;20053;-85
2021/06/01 02:35:38;;;;;;;1.95;1.35;;;;;;;17.38;35.70;100261.91;5015994;28;20038;-85
2021/06/01 02:38:11;;;;;;;2.38;1.50;;;;;;;17.36;35.82;100257.66;5016511;28;20096;-85
2021/06/01 02:40:39;;;;;;;2.03;1.13;;;;;;;17.37;35.58;100262.88;5016184;28;20053;-84
2021/06/01 02:43:11;;;;;;;2.97;1.67;;;;;;;17.36;35.86;100261.19;5016591;28;20585;-85
2021/06/01 02:45:50;;;;;;;4.38;1.42;;;;;;;17.34;35.67;100262.28;5015945;28;20053;-85
2021/06/01 02:48:20;;;;;;;2.72;1.45;;;;;;;17.37;35.67;100257.56;5016384;28;20072;-84
2021/06/01 02:50:50;;;;;;;3.17;1.50;;;;;;;17.37;35.93;100262.00;5016348;28;20049;-85
2021/06/01 02:53:21;;;;;;;3.60;1.70;;;;;;;17.34;35.99;100252.47;5015868;28;20494;-85
2021/06/01 02:55:48;;;;;;;1.95;1.60;;;;;;;17.36;35.56;100255.88;5015886;28;20048;-84
2021/06/01 02:58:34;;;;;;;2.80;1.60;;;;;;;17.30;35.69;100246.53;5015982;28;20046;-84
2021/06/01 03:01:04;;;;;;;4.10;1.70;;;;;;;17.34;35.69;100246.31;5015947;28;20056;-85
2021/06/01 03:03:31;;;;;;;2.20;1.70;;;;;;;17.33;36.19;100240.13;5015765;28;20065;-84
2021/06/01 03:06:05;;;;;;;4.00;1.90;;;;;;;17.29;36.18;100250.16;5015435;28;20046;-85
2021/06/01 03:08:31;;;;;;;3.65;1.75;;;;;;;17.29;36.23;100250.16;5015977;28;20049;-85
2021/06/01 03:11:02;;;;;;;5.10;1.77;;;;;;;17.26;36.18;100245.09;5015408;28;20060;-84
2021/06/01 03:13:29;;;;;;;3.42;1.50;;;;;;;17.27;36.23;100244.09;5015575;28;20052;-85
2021/06/01 03:16:01;;;;;;;2.05;1.70;;;;;;;17.25;36.31;100253.19;5015452;28;20042;-84
2021/06/01 03:18:28;;;;;;;5.60;1.60;;;;;;;17.24;36.21;100247.03;5015492;28;20100;-84
2021/06/01 03:20:56;;;;;;;2.63;1.73;;;;;;;17.23;36.17;100250.63;5015759;28;20080;-85
2021/06/01 03:23:23;;;;;;;2.47;1.45;;;;;;;17.22;36.32;100243.63;5015927;28;20049;-85
2021/06/01 03:26:06;;;;;;;1.92;1.55;;;;;;;17.16;36.44;100244.94;5015235;28;20501;-84
2021/06/01 03:28:33;;;;;;;2.60;1.80;;;;;;;17.20;36.26;100237.59;5015273;28;20054;-85
2021/06/01 03:31:03;;;;;;;3.78;1.45;;;;;;;17.17;36.46;100237.81;5015337;28;20050;-84
2021/06/01 03:33:30;;;;;;;3.03;1.67;;;;;;;17.16;36.41;100234.31;5015822;28;20045;-84
2021/06/01 03:35:57;;;;;;;4.65;2.03;;;;;;;17.15;36.42;100232.63;5014958;28;20056;-85
2021/06/01 03:38:34;;;;;;;2.67;1.52;;;;;;;17.09;36.97;100234.91;5015447;28;20093;-84
2021/06/01 03:41:01;;;;;;;3.83;1.80;;;;;;;17.10;36.77;100234.78;5015178;28;20054;-85
2021/06/01 03:43:27;;;;;;;3.25;1.60;;;;;;;17.07;36.96;100235.00;5015161;28;20053;-85
2021/06/01 03:46:01;;;;;;;3.35;1.90;;;;;;;17.02;37.17;100237.16;5014889;28;20054;-85
2021/06/01 03:48:28;;;;;;;4.15;1.80;;;;;;;17.02;37.36;100239.81;5014542;28;20137;-84
2021/06/01 03:50:59;;;;;;;2.97;1.73;;;;;;;16.98;37.56;100238.34;5014713;28;20053;-84
2021/06/01 03:53:28;;;;;;;3.22;1.85;;;;;;;16.96;37.51;100237.63;5014500;28;20058;-84
2021/06/01 03:55:55;;;;;;;2.00;1.75;;;;;;;16.92;37.91;100244.97;5014254;28;20144;-84
2021/06/01 03:58:22;;;;;;;3.25;1.50;;;;;;;16.88;38.08;100231.09;5013929;28;20050;-85
2021/06/01 04:00:52;;;;;;;3.60;1.60;;;;;;;16.86;38.33;100240.16;5015214;28;20050;-85
2021/06/01 04:03:18;;;;;;;4.20;1.52;;;;;;;16.83;38.17;100235.91;5014763;28;20045;-85
2021/06/01 04:06:01;;;;;;;3.78;1.55;;;;;;;16.76;38.34;100230.22;5014184;28;20424;-85
2021/06/01 04:08:27;;;;;;;3.15;1.65;;;;;;;16.78;38.63;100232.72;5015971;28;20482;-85
2021/06/01 04:11:06;;;;;;;2.35;1.60;;;;;;;16.72;38.74;100233.19;5016002;28;20486;-84
2021/06/01 04:13:33;;;;;;;2.22;1.67;;;;;;;16.73;38.38;100227.78;5014479;28;20060;-84
2021/06/01 04:15:59;;;;;;;3.15;1.70;;;;;;;16.72;38.85;100228.75;5015759;28;20406;-84
2021/06/01 04:18:27;;;;;;;3.15;1.67;;;;;;;16.71;39.25;100228.84;5014414;28;20064;-84
2021/06/01 04:20:54;;;;;;;2.97;1.80;;;;;;;16.70;39.17;100237.81;5014658;28;20057;-84
2021/06/01 04:23:21;;;;;;;2.83;1.80;;;;;;;16.69;39.75;100228.97;5014365;28;20060;-84
2021/06/01 04:25:59;;;;;;;3.88;1.70;;;;;;;16.65;39.95;100235.47;5014138;28;20046;-84
2021/06/01 04:28:26;;;;;;;2.72;1.80;;;;;;;16.68;39.80;100230.75;5014352;28;20060;-84
2021/06/01 04:31:08;;;;;;;3.55;1.73;;;;;;;16.63;40.09;100227.63;5015681;28;20049;-85
2021/06/01 04:33:35;;;;;;;3.63;1.92;;;;;;;16.68;39.84;100229.94;5014405;28;20058;-84
2021/06/01 04:36:11;;;;;;;3.90;1.92;;;;;;;16.65;40.40;100230.16;5013905;28;20050;-84
2021/06/01 04:38:37;;;;;;;2.67;1.73;;;;;;;16.69;39.70;100226.31;5014378;28;20482;-84
2021/06/01 04:41:04;;;;;;;4.00;1.92;;;;;;;16.71;40.03;100220.88;5015514;28;20521;-84
2021/06/01 04:43:31;;;;;;;3.47;2.30;;;;;;;16.72;40.06;100222.56;5014296;28;20064;-84
2021/06/01 04:45:57;;;;;;;3.13;1.75;;;;;;;16.74;40.20;100223.31;5013561;28;20042;-85
2021/06/01 04:48:31;;;;;;;6.03;1.90;;;;;;;16.75;40.87;100235.63;5013567;28;20054;-84
2021/06/01 04:50:58;;;;;;;2.40;1.83;;;;;;;16.81;40.20;100229.84;5013840;28;20060;-84
2021/06/01 04:53:25;;;;;;;3.30;1.85;;;;;;;16.85;40.57;100235.78;4996978;28;20054;-84
2021/06/01 04:55:52;;;;;;;2.40;1.58;;;;;;;16.89;40.19;100237.22;5013551;28;20053;-84
2021/06/01 04:58:18;;;;;;;3.33;1.52;;;;;;;16.91;40.42;100235.31;5013751;28;20049;-84
2021/06/01 05:00:45;;;;;;;2.17;1.90;;;;;;;16.98;40.76;100235.69;5013682;28;20057;-86
2021/06/01 05:03:12;;;;;;;3.83;2.17;;;;;;;17.01;41.03;100236.28;5014737;28;20050;-86
2021/06/01 05:05:39;;;;;;;3.90;1.83;;;;;;;17.06;41.02;100233.31;5013975;28;20064;-86
2021/06/01 05:08:05;;;;;;;3.60;1.88;;;;;;;17.12;41.04;100232.84;5013964;28;20478;-86
2021/06/01 05:10:32;;;;;;;2.90;1.85;;;;;;;17.16;41.38;100231.63;5014986;28;20053;-86
2021/06/01 05:12:59;;;;;;;4.78;2.05;;;;;;;17.22;41.50;100232.97;5013122;28;20052;-86
2021/06/01 05:15:26;;;;;;;3.90;1.65;;;;;;;17.28;41.61;100236.97;5013161;28;20062;-86
2021/06/01 05:17:53;;;;;;;2.33;1.83;;;;;;;17.32;41.51;100239.28;5014405;28;20056;-86
2021/06/01 05:20:35;;;;;;;6.82;2.38;;;;;;;17.35;41.78;100242.69;5013601;28;20430;-86
2021/06/01 05:23:02;;;;;;;4.63;1.92;;;;;;;17.43;41.65;100238.44;4993806;28;20406;-86
2021/06/01 05:25:38;;;;;;;3.35;2.05;;;;;;;17.45;42.26;100235.66;4993430;28;20054;-86
2021/06/01 05:28:05;;;;;;;4.18;1.70;;;;;;;17.54;41.86;100234.91;4993513;28;20073;-86
2021/06/01 05:33:38;;;;;;;6.07;2.10;;;;;;;17.66;42.20;100234.94;5035096;28;20061;-86
2021/06/01 05:36:07;;;;;;;3.17;1.63;;;;;;;17.69;41.74;100229.38;5051829;28;20049;-86
2021/06/01 05:38:33;;;;;;;3.80;1.90;;;;;;;17.77;42.06;100240.25;5035185;28;20057;-86
2021/06/01 05:41:09;;;;;;;4.43;1.63;;;;;;;17.78;42.48;100235.75;5034990;28;20055;-86
2021/06/01 05:43:37;;;;;;;3.28;1.55;;;;;;;17.87;42.05;100236.84;5026059;28;20053;-86
2021/06/01 05:46:05;;;;;;;3.88;1.77;;;;;;;17.92;42.06;100240.84;5031532;28;20046;-86
2021/06/01 05:48:34;;;;;;;2.45;1.70;;;;;;;17.95;42.47;100234.44;5031726;28;20409;-86
2021/06/01 05:51:01;;;;;;;5.80;2.08;;;;;;;18.01;41.76;100244.56;5031756;28;20050;-86
2021/06/01 05:53:28;;;;;;;4.05;2.05;;;;;;;18.06;42.04;100236.22;5031521;28;20520;-86
2021/06/01 05:55:56;;;;;;;5.60;2.35;;;;;;;18.08;41.92;100236.97;5009314;28;20217;-86
2021/06/01 05:58:24;;;;;;;3.97;1.83;;;;;;;18.13;41.85;100236.59;5005262;28;20058;-86
2021/06/01 06:00:51;;;;;;;4.65;2.17;;;;;;;18.17;41.27;100238.88;4992997;28;20050;-86
2021/06/01 06:03:19;;;;;;;4.38;1.85;;;;;;;18.21;41.29;100239.47;4993341;28;20089;-86
2021/06/01 06:05:46;;;;;;;4.03;2.25;;;;;;;18.23;41.27;100243.72;4993017;28;20065;-86
2021/06/01 06:08:27;;;;;;;3.65;1.98;;;;;;;18.24;41.70;100241.88;4993304;28;20054;-86
2021/06/01 06:10:54;;;;;;;2.28;1.60;;;;;;;18.33;41.54;100242.94;4993014;28;20058;-86
2021/06/01 06:13:20;;;;;;;1.88;1.60;;;;;;;18.35;41.17;100238.31;4994984;28;20058;-86
2021/06/01 06:15:47;;;;;;;5.85;1.60;;;;;;;18.39;41.29;100238.94;5012247;28;20056;-86
2021/06/01 06:18:40;;;;;;;3.53;1.60;;;;;;;18.38;41.25;100246.09;5012775;28;20478;-86
2021/06/01 06:21:13;;;;;;;3.43;1.57;;;;;;;18.46;41.54;100250.78;5012696;28;20049;-86
2021/06/01 06:23:41;;;;;;;2.00;1.50;;;;;;;18.51;40.92;100253.94;5012498;28;20144;-86
2021/06/01 06:26:09;;;;;;;4.43;1.60;;;;;;;18.53;41.46;100253.78;5012733;28;20093;-86
2021/06/01 06:29:04;;;;;;;2.35;1.92;;;;;;;18.54;41.56;100255.50;5012294;28;20553;-86
2021/06/01 06:31:31;;;;;;;2.35;1.40;;;;;;;18.64;41.42;100244.91;4992705;28;20050;-86
2021/06/01 06:33:58;;;;;;;3.30;1.70;;;;;;;18.67;41.63;100252.63;4992425;28;20085;-86
2021/06/01 06:36:28;;;;;;;5.82;1.85;;;;;;;18.70;41.54;100252.38;4993011;28;20057;-86
2021/06/01 06:38:55;;;;;;;3.58;1.65;;;;;;;18.76;41.47;100251.84;5020667;28;20058;-86
2021/06/01 06:41:21;;;;;;;2.45;1.70;;;;;;;18.81;41.35;100246.16;5012625;28;20064;-86
2021/06/01 06:43:54;;;;;;;2.90;1.70;;;;;;;18.84;41.48;100249.38;5012088;28;20406;-86
2021/06/01 06:49:12;;;;;;;3.75;1.63;;;;;;;18.98;40.77;100244.72;5013419;28;20096;-86
2021/06/01 06:51:43;;;;;;;2.60;1.50;;;;;;;19.01;41.18;100241.78;5012679;28;20054;-86
2021/06/01 06:54:09;;;;;;;2.90;1.80;;;;;;;19.08;40.91;100244.81;5012495;28;20433;-86
2021/06/01 06:56:36;;;;;;;2.97;1.65;;;;;;;19.13;41.56;100240.78;5011694;28;20050;-86
2021/06/01 06:59:11;;;;;;;4.22;2.13;;;;;;;19.16;41.76;100247.66;5012460;28;20697;-86
2021/06/01 07:01:38;;;;;;;2.67;1.77;;;;;;;19.25;41.34;100246.06;5012415;28;20058;-86
2021/06/01 07:04:05;;;;;;;4.38;1.85;;;;;;;19.30;41.39;100240.28;5012073;28;20094;-86
2021/06/01 07:06:37;;;;;;;2.20;1.60;;;;;;;19.32;41.54;100233.84;5011981;28;20054;-86
2021/06/01 07:09:05;;;;;;;2.17;1.60;;;;;;;19.39;41.05;100237.69;5012169;28;20596;-86
2021/06/01 07:11:32;;;;;;;4.07;1.85;;;;;;;19.45;41.31;100235.44;5012239;28;20398;-86
2021/06/01 07:14:10;;;;;;;3.40;1.80;;;;;;;19.48;41.88;100237.84;5012177;28;20410;-86
2021/06/01 07:16:39;;;;;;;2.75;1.85;;;;;;;19.56;41.84;100232.69;5013812;28;20461;-86
2021/06/01 07:19:06;;;;;;;6.18;2.08;;;;;;;19.63;41.57;100233.81;5015770;28;20054;-86
2021/06/01 07:21:33;;;;;;;3.22;1.90;;;;;;;19.70;41.58;100230.63;5015805;28;20490;-87
2021/06/01 07:24:00;;;;;;;3.42;1.85;;;;;;;19.77;41.80;100239.78;5015166;28;20049;-86
2021/06/01 07:26:27;;;;;;;3.60;1.77;;;;;;;19.84;41.97;100238.25;5015535;28;20383;-86
2021/06/01 07:28:58;;;;;;;3.88;1.80;;;;;;;19.91;41.74;100238.56;5015651;28;20076;-86
2021/06/01 07:31:25;;;;;;;3.55;1.95;;;;;;;20.01;42.00;100243.97;5016369;28;20064;-86
2021/06/01 07:33:52;;;;;;;3.03;1.80;;;;;;;20.08;41.68;100234.44;5015098;28;20060;-86
2021/06/01 07:36:18;;;;;;;4.07;1.92;;;;;;;20.16;42.09;100234.59;5015218;28;20049;-86
2021/06/01 07:38:45;;;;;;;4.70;2.13;;;;;;;20.25;41.78;100237.38;5015223;28;20835;-86
2021/06/01 07:41:19;;;;;;;3.38;2.05;;;;;;;20.30;41.02;100235.97;5015145;28;20053;-86
2021/06/01 07:43:46;;;;;;;3.55;1.90;;;;;;;20.41;40.88;100232.31;5014864;28;20128;-87
2021/06/01 07:46:12;;;;;;;3.13;1.90;;;;;;;20.50;40.48;100236.00;5015304;28;20112;-86
2021/06/01 07:48:54;;;;;;;4.57;2.22;;;;;;;20.56;40.18;100229.25;5015272;28;20073;-86
2021/06/01 07:51:28;;;;;;;5.00;1.95;;;;;;;20.69;40.19;100234.31;5014791;28;20046;-86
2021/06/01 07:54:10;;;;;;;4.22;2.22;;;;;;;20.75;39.71;100225.69;5014666;28;20049;-86
2021/06/01 07:56:37;;;;;;;2.47;1.83;;;;;;;20.88;39.66;100233.47;5015006;28;20125;-87
2021/06/01 07:59:04;;;;;;;6.22;1.98;;;;;;;20.96;39.71;100228.25;5016009;28;20050;-86
2021/06/01 08:02:17;;;;;;;5.30;2.13;;;;;;;21.02;39.85;100226.84;5014744;28;20049;-86
2021/06/01 08:04:44;;;;;;;3.42;1.85;;;;;;;21.18;39.98;100226.22;5014961;28;20379;-87
2021/06/01 08:07:18;;;;;;;3.97;2.15;;;;;;;21.26;40.22;100221.97;5014554;28;20056;-86
2021/06/01 08:09:45;;;;;;;5.15;1.77;;;;;;;21.35;39.39;100227.28;5014817;28;20053;-87
2021/06/01 08:12:12;;;;;;;2.92;1.70;;;;;;;21.44;38.93;100225.56;5014798;28;20058;-87
2021/06/01 08:14:46;;;;;;;3.85;1.88;;;;;;;21.51;39.31;100227.63;5014596;28;20046;-87
2021/06/01 08:17:22;;;;;;;3.40;1.73;;;;;;;21.60;38.76;100213.34;5014450;28;20053;-86
2021/06/01 08:19:49;;;;;;;2.75;1.63;;;;;;;21.73;38.65;100219.25;5014268;28;20132;-87
2021/06/01 08:24:51;;;;;;;4.90;1.80;;;;;;;21.91;38.36;100215.78;5015972;28;20050;-86
2021/06/01 08:27:17;;;;;;;3.08;1.60;;;;;;;22.03;38.02;100213.72;5013797;28;20528;-87
2021/06/01 08:29:44;;;;;;;3.60;1.80;;;;;;;22.13;38.30;100210.97;5013923;28;20072;-82
2021/06/01 08:32:11;;;;;;;2.58;1.70;;;;;;;22.20;37.94;100209.34;5013411;28;20057;-81
2021/06/01 08:34:40;;;;;;;2.53;1.60;;;;;;;22.27;37.64;100209.59;5013365;28;20054;-82
2021/06/01 08:37:07;;;;;;;3.20;1.52;;;;;;;22.37;38.25;100204.16;5013753;28;20054;-82
2021/06/01 08:39:33;;;;;;;3.08;1.90;;;;;;;22.45;37.29;100203.38;5013976;28;20056;-82
2021/06/01 08:42:03;;;;;;;3.08;1.67;;;;;;;22.52;36.46;100207.13;5014474;28;20438;-82
2021/06/01 08:44:29;;;;;;;3.28;1.75;;;;;;;22.62;36.53;100199.03;5013692;28;20058;-82
2021/06/01 08:46:58;;;;;;;1.30;1.20;;;;;;;22.69;36.29;100193.88;5013821;28;20050;-82
2021/06/01 08:49:24;;;;;;;3.38;1.70;;;;;;;22.78;36.07;100201.00;5014136;28;20050;-82
2021/06/01 08:51:51;;;;;;;2.22;1.55;;;;;;;22.86;35.54;100201.03;5013979;28;20508;-81
2021/06/01 08:54:18;;;;;;;3.58;1.75;;;;;;;22.93;35.77;100198.56;5013932;28;20165;-81
2021/06/01 08:56:49;;;;;;;2.33;1.70;;;;;;;22.98;36.00;100193.56;5013992;28;20401;-81
2021/06/01 08:59:16;;;;;;;2.92;1.40;;;;;;;23.10;35.61;100193.31;5013750;28;20538;-82
2021/06/01 09:01:47;;;;;;;3.08;1.50;;;;;;;23.16;35.19;100192.66;5013700;28;20148;-81
2021/06/01 09:04:14;;;;;;;1.90;1.33;;;;;;;23.25;35.33;100190.88;5013637;28;20058;-82
2021/06/01 09:06:54;;;;;;;2.95;1.70;;;;;;;23.33;34.42;100187.38;5013418;28;20041;-82
2021/06/01 09:09:49;;;;;;;2.90;1.73;;;;;;;23.41;35.35;100187.44;5014004;28;20113;-83
2021/06/01 09:15:20;;;;;;;2.00;1.33;;;;;;;23.59;35.38;100181.97;5026804;22;20050;-84
2021/06/01 09:23:08;;;;;;;2.05;1.40;;;;;;;23.89;34.68;100181.56;5013215;28;20054;-85
2021/06/01 09:25:45;;;;;;;2.17;1.45;;;;;;;23.93;34.01;100167.59;5012654;28;20045;-84
2021/06/01 09:28:15;;;;;;;2.30;1.50;;;;;;;23.99;32.57;100174.16;5011402;28;20046;-85
2021/06/01 09:30:43;;;;;;;2.80;1.60;;;;;;;24.02;33.57;100170.31;5009896;28;20053;-84
2021/06/01 09:33:16;;;;;;;2.13;1.13;;;;;;;24.04;33.64;100163.75;5013118;28;20057;-84
2021/06/01 09:35:45;;;;;;;2.60;1.60;;;;;;;24.12;33.81;100162.97;5011873;28;20049;-84
2021/06/01 09:38:12;;;;;;;1.70;1.40;;;;;;;24.17;33.48;100160.63;5013018;28;20073;-84
2021/06/01 09:40:40;;;;;;;1.25;1.13;;;;;;;24.22;32.73;100161.97;5012912;28;20061;-84
2021/06/01 09:43:10;;;;;;;2.80;1.35;;;;;;;24.26;32.72;100160.63;5012870;28;20115;-84
2021/06/01 09:45:37;;;;;;;2.53;1.33;;;;;;;24.31;33.01;100160.97;4995126;28;20050;-85
2021/06/01 09:48:07;;;;;;;1.75;1.23;;;;;;;24.38;32.69;100166.50;4992094;28;20050;-84
2021/06/01 09:53:26;;;;;;;3.45;1.30;;;;;;;24.54;32.69;100171.03;4992834;28;20061;-85
2021/06/01 09:55:54;;;;;;;1.48;1.17;;;;;;;24.60;32.36;100165.81;4992915;28;20410;-84
2021/06/01 09:58:29;;;;;;;3.58;1.20;;;;;;;24.63;31.25;100166.50;4993604;28;20046;-84
2021/06/01 10:00:57;;;;;;;1.60;1.05;;;;;;;24.70;31.89;100160.25;4993071;28;20077;-84
2021/06/01 10:03:32;;;;;;;2.95;1.05;;;;;;;24.75;31.27;100165.13;4992965;28;20081;-85
2021/06/01 10:05:59;;;;;;;5.75;1.30;;;;;;;24.80;31.61;100157.38;4992341;28;20054;-84
2021/06/01 10:08:27;;;;;;;2.40;1.02;;;;;;;24.84;31.15;100153.38;5012213;28;20053;-84
2021/06/01 10:11:02;;;;;;;2.35;1.20;;;;;;;24.85;31.02;100151.50;5001324;28;20054;-84
2021/06/01 10:13:32;;;;;;;1.55;0.90;;;;;;;24.91;31.49;100158.06;5006897;28;20065;-85
2021/06/01 10:16:01;;;;;;;2.42;1.27;;;;;;;24.94;31.61;100144.25;5011785;28;20046;-84
2021/06/01 10:18:31;;;;;;;2.05;1.10;;;;;;;24.98;31.60;100140.19;5012305;28;20061;-84
2021/06/01 10:21:02;;;;;;;2.50;1.15;;;;;;;25.02;31.35;100146.91;5011172;28;20061;-83
2021/06/01 10:23:35;;;;;;;1.35;1.10;;;;;;;25.07;31.20;100139.16;5010845;28;20499;-84
2021/06/01 10:26:05;;;;;;;2.40;1.20;;;;;;;25.15;30.99;100143.66;5012088;28;20438;-84
2021/06/01 10:28:43;;;;;;;3.53;1.35;;;;;;;25.24;31.12;100131.00;5011313;28;20053;-84
2021/06/01 10:31:13;;;;;;;1.23;1.13;;;;;;;25.33;30.76;100132.66;5010973;28;20119;-84
2021/06/01 10:33:55;;;;;;;1.20;1.05;;;;;;;25.42;30.58;100129.94;4996469;28;20054;-85
2021/06/01 10:50:52;;;;;;;1.10;1.00;;;;;;;27.12;30.32;100123.66;4974097;28;20055;-84
2021/06/01 10:53:18;;;;;;;1.13;0.90;;;;;;;27.74;29.18;100117.97;4999099;28;20189;-83
2021/06/01 10:55:58;;;;;;;0.80;0.80;;;;;;;28.32;28.71;100119.75;5016153;28;20050;-84
2021/06/01 10:58:54;;;;;;;1.25;1.05;;;;;;;28.96;29.34;100120.63;5017324;28;20064;-84
2021/06/01 11:04:20;;;;;;;1.60;1.00;;;;;;;30.04;27.74;100115.53;5016446;28;20164;-84
2021/06/01 11:06:52;;;;;;;1.65;1.00;;;;;;;30.47;26.74;100108.03;5001598;28;20388;-83
2021/06/01 11:12:23;;;;;;;1.55;0.95;;;;;;;31.16;26.75;100104.09;4997217;28;20125;-84
2021/06/01 11:14:57;;;;;;;1.35;1.00;;;;;;;31.49;25.27;100097.69;4994687;28;20504;-83
2021/06/01 11:17:33;;;;;;;1.95;1.10;;;;;;;31.70;24.91;100093.78;4977851;28;20055;-84
2021/06/01 11:20:41;;;;;;;1.42;0.98;;;;;;;31.90;25.48;100092.84;4977791;28;20065;-84
2021/06/01 11:33:57;;;;;;;3.28;1.00;;;;;;;32.91;24.16;100079.28;5015193;28;20054;-85
2021/06/01 11:36:38;;;;;;;1.73;0.93;;;;;;;32.95;23.83;100081.34;5001853;28;20089;-85
2021/06/01 11:39:31;;;;;;;1.55;0.93;;;;;;;33.10;23.48;100086.44;4994317;28;20058;-85
2021/06/01 11:44:44;;;;;;;2.45;1.30;;;;;;;33.46;23.23;100081.13;4994009;28;20058;-84
2021/06/01 11:52:29;;;;;;;1.15;0.80;;;;;;;34.06;22.15;100073.88;5014542;28;20500;-84
2021/06/01 11:55:05;;;;;;;2.35;1.13;;;;;;;34.22;22.00;100074.28;5014406;28;20411;-84
2021/06/01 11:57:41;;;;;;;1.23;1.00;;;;;;;34.39;22.02;100058.00;4975624;28;20051;-84
2021/06/01 12:03:04;;;;;;;3.97;1.02;;;;;;;34.81;22.40;100056.19;4975246;28;20121;-85
2021/06/01 12:18:57;;;;;;;4.75;1.35;;;;;;;35.56;19.47;100049.91;4992387;28;20085;-84
2021/06/01 12:21:23;;;;;;;1.35;0.88;;;;;;;35.60;20.24;100048.34;4994248;28;20054;-85
2021/06/01 12:23:58;;;;;;;1.48;0.80;;;;;;;35.71;19.35;100036.53;4993790;28;20054;-84
2021/06/01 12:26:33;;;;;;;1.55;1.00;;;;;;;35.88;18.85;100032.13;5004466;28;20052;-84
2021/06/01 12:32:00;;;;;;;1.67;1.10;;;;;;;36.19;19.34;100044.41;5013159;28;20065;-85
2021/06/01 13:19:47;;;;;;;1.67;1.00;;;;;;;37.77;18.58;99997.28;5012681;28;20056;-86
2021/06/01 13:31:20;;;;;;;3.17;1.00;;;;;;;37.57;19.34;99988.84;4992806;28;20488;-84
2021/06/01 13:39:48;;;;;;;1.60;0.95;;;;;;;38.14;18.84;99967.28;5012329;28;20052;-85
2021/06/01 13:50:55;;;;;;;2.17;1.10;;;;;;;37.82;17.83;99962.69;4992217;28;20512;-84
2021/06/01 13:56:03;;;;;;;1.20;1.10;;;;;;;37.44;18.83;99969.00;5010163;28;20112;-85
2021/06/01 14:09:42;;;;;;;2.45;1.00;;;;;;;37.59;18.53;99957.28;4972985;28;20046;-85
2021/06/01 14:37:46;;;;;;;4.55;1.33;;;;;;;38.11;17.08;99934.88;5013226;28;20069;-85
2021/06/01 15:10:14;;;;;;;1.27;1.15;;;;;;;36.28;19.41;99915.16;5010100;28;20041;-85
2021/06/01 15:48:35;;;;;;;1.38;1.27;;;;;;;35.19;20.40;99884.28;4995380;28;20046;-85
2021/06/01 15:51:45;;;;;;;1.63;1.45;;;;;;;35.25;20.82;99882.47;4994919;28;20074;-85
2021/06/01 16:23:53;;;;;;;1.30;1.20;;;;;;;35.33;19.79;99852.78;4994421;28;20050;-84
2021/06/01 17:05:48;;;;;;;1.85;1.73;;;;;;;31.33;23.13;99841.50;4977757;28;20050;-84
2021/06/01 17:13:52;;;;;;;2.58;1.95;;;;;;;30.63;23.85;99843.25;5013344;28;20050;-85
2021/06/01 17:22:22;;;;;;;3.58;1.83;;;;;;;30.07;23.92;99837.44;4994852;28;20050;-83
2021/06/01 17:35:46;;;;;;;3.05;2.00;;;;;;;29.34;25.48;99842.78;4994975;28;20050;-84
2021/06/01 17:38:13;;;;;;;2.05;1.70;;;;;;;29.23;25.71;99846.13;4996941;28;20423;-84
2021/06/01 17:40:41;;;;;;;2.03;1.80;;;;;;;29.12;25.43;99836.75;4996448;28;20053;-84